Airfield :
LOGIN :

Register | Disclaimer

   EN    FR    IT 

 










Legend :    VFR   Marginal VFR   IFR   Intensive IFR   Very Intensive IFR
Visi :
Ceiling :
>= 8 km
>= 3000ft
5 to 8 km
1000 to 3000 ft
1500m to 5 km
500 to 1000 ft
800 to 1500m
200 to 500 ft
< 800m
< 200 ft
Symbols :   Thunderstorms  Fog  Heavy snow  Heavy precipitations  Wind > 20 kt
SIGMETs :     Misc.  Thunderstorms  Icing  Turbulence  Mountain Waves  Volcanic Ashes







- Airport Elevation : 179 ft


LIPI - Rivolto AFB Udine

CURRENT METAR :
  • 220755Z /////KT CAVOK 30/17 Q1021 RMK SCT SCT160 VIS MIN 9999 WIND THR06 03006KT WIND THR24 05006KT BLU

EXPIRED METARs :
  • 220655Z /////KT CAVOK 28/18 Q1021 RMK SCT SCT160 VIS MIN 9999 WIND THR06 04007KT WIND THR24 04005KT BLU
  • 220555Z /////KT CAVOK 26/18 Q1021 RMK SCT SCT160 VIS MIN 9999 WIND THR06 02006KT WIND THR24 02005KT BLU
  • 220455Z /////KT CAVOK 23/18 Q1021 RMK SCT SCT160 VIS MIN 9999 WIND THR06 02007KT WIND THR24 02005KT BLU

TAF TAF LIPI
Valid from the 22 at 06:00 until the 22 at 15:00 UTC


220500Z 2206/2215 03005KT CAVOK
BECMG 2210/2212 19010KT
No reported NOTAMs for that airfield.



MET'MAP, your aeronautical weather chart ! - Copyright ORBIFLY December 2007 - Disclaimer

ORBIFLY MET'MAP TEAM :

Programming & Development : Alexandra Zaïnal
Concept & Development : Baudouin d'Aumeries
Co-Development & Prog : Marc-Olivier Méhu
Technical & hardware support : Manuel Goepfert

Contact : metmap@orbifly.com




SOURCES & CREDITS :

   NOAA